Terminal Aerodrome Forecast
Issued by NWS Cheyenne, WY

Home | Current Version | Previous Version | Text Only | Print | Product List | Glossary On
Versions: 1 2 3 4 5 6 7 8 9 10 11 12 13 14 15 16 17 18 19 20 21 22 23 24 25 26 27 28 29 30 31 32 33 34 35 36 37 38 39 40
000
FTUS45 KCYS 191128
TAFCYS
TAF
KCYS 191128Z 1912/2012 34002KT P6SM BKN120
     FM191600 30012KT P6SM VCSH BKN120 BKN250
     FM192000 28015G25KT P6SM VCSH SCT100 SCT250
     FM200200 25011KT P6SM FEW250
     AMD NOT SKED=

USA.gov is the U.S. government's official web portal to all federal, state and local government web resources and services.